createdAt,value
2018-12-11T00:01:06.749Z,80.14
2018-12-11T00:03:38.479Z,80.30
2018-12-11T00:06:11.522Z,80.80
2018-12-11T00:09:01.441Z,80.00
2018-12-11T00:11:34.111Z,80.13
2018-12-11T00:14:06.313Z,81.17
2018-12-11T00:16:38.627Z,81.83
2018-12-11T00:19:10.658Z,81.92
2018-12-11T00:21:42.969Z,81.40
2018-12-11T00:24:15.193Z,81.43
2018-12-11T00:26:47.384Z,81.79
2018-12-11T00:29:19.533Z,81.87
2018-12-11T00:31:51.864Z,82.00
2018-12-11T00:34:24.434Z,82.08
2018-12-11T00:36:58.935Z,81.83
2018-12-11T00:39:30.636Z,81.76
2018-12-11T00:42:03.004Z,81.94
2018-12-11T00:44:35.065Z,81.98
2018-12-11T00:47:07.285Z,81.44
2018-12-11T00:49:39.400Z,80.88
2018-12-11T00:52:09.701Z,81.05
2018-12-11T00:54:46.227Z,80.97
2018-12-11T00:57:18.951Z,79.82
2018-12-11T00:59:50.850Z,79.80
2018-12-11T01:02:23.349Z,78.96
2018-12-11T01:04:55.589Z,78.21
2018-12-11T01:07:27.824Z,78.85
2018-12-11T01:09:59.953Z,79.15
2018-12-11T01:12:32.103Z,79.81
2018-12-11T01:15:07.079Z,78.73
2018-12-11T01:17:39.584Z,78.59
2018-12-11T01:20:13.950Z,78.75
2018-12-11T01:22:45.675Z,79.74
2018-12-11T01:25:30.240Z,79.53
2018-12-11T01:28:02.104Z,79.86
2018-12-11T01:30:34.199Z,79.68
2018-12-11T01:33:06.577Z,79.90
2018-12-11T01:35:38.384Z,79.69
2018-12-11T01:38:12.786Z,80.00
2018-12-11T01:40:44.527Z,79.51
2018-12-11T01:43:16.709Z,79.80
2018-12-11T01:45:48.720Z,79.94
2018-12-11T01:48:20.855Z,79.66
2018-12-11T01:53:21.740Z,78.40
2018-12-11T01:55:53.784Z,78.31
2018-12-11T01:58:26.135Z,78.73
2018-12-11T02:00:58.652Z,78.29
2018-12-11T02:03:32.048Z,78.35
2018-12-11T02:06:03.965Z,78.11
2018-12-11T02:08:36.034Z,77.94
2018-12-11T02:11:08.498Z,78.14
2018-12-11T02:13:41.066Z,78.06
2018-12-11T02:16:13.040Z,77.10
2018-12-11T02:18:45.103Z,77.53
2018-12-11T02:21:17.233Z,77.15
2018-12-11T02:23:47.460Z,76.77
2018-12-11T02:26:19.803Z,77.11
2018-12-11T02:28:54.304Z,77.17
2018-12-11T02:31:26.129Z,77.27
2018-12-11T02:33:56.499Z,77.21
2018-12-11T02:36:26.895Z,76.78
2018-12-11T02:38:59.393Z,77.13
2018-12-11T02:45:13.176Z,77.72
2018-12-11T02:47:43.327Z,77.14
2018-12-11T02:50:15.675Z,77.71
2018-12-11T02:52:48.019Z,77.23
2018-12-11T02:55:21.780Z,77.40
2018-12-11T02:57:53.954Z,77.85
2018-12-11T03:00:26.416Z,77.60
2018-12-11T03:02:58.632Z,77.88
2018-12-11T03:05:28.821Z,77.92
2018-12-11T03:08:01.120Z,77.90
2018-12-11T03:10:33.317Z,77.97
2018-12-11T03:13:05.806Z,78.25
2018-12-11T03:15:37.798Z,77.93
2018-12-11T03:18:08.242Z,78.03
2018-12-11T03:20:41.603Z,78.34
2018-12-11T03:23:13.659Z,77.33
2018-12-11T03:25:44.053Z,77.47
2018-12-11T03:28:16.334Z,77.79
2018-12-11T03:30:48.452Z,77.26
2018-12-11T03:33:20.699Z,77.34
2018-12-11T03:35:52.704Z,77.71
2018-12-11T03:38:24.747Z,76.96
2018-12-11T03:40:57.492Z,77.21
2018-12-11T03:43:31.440Z,76.86
2018-12-11T03:46:03.259Z,76.79
2018-12-11T03:48:35.430Z,77.07
2018-12-11T03:51:08.044Z,76.60
2018-12-11T03:53:38.070Z,76.61
2018-12-11T03:56:12.595Z,76.31
2018-12-11T04:01:38.100Z,75.81
2018-12-11T04:04:09.832Z,75.73
2018-12-11T04:06:42.342Z,75.56
2018-12-11T04:09:14.181Z,75.73
2018-12-11T04:11:46.592Z,75.96
2018-12-11T04:14:19.533Z,75.11
2018-12-11T04:16:51.605Z,74.50
2018-12-11T04:19:25.652Z,73.65
2018-12-11T04:21:57.346Z,72.97
2018-12-11T04:24:29.975Z,72.09
2018-12-11T04:27:01.675Z,71.33
2018-12-11T04:29:34.121Z,71.02
2018-12-11T04:32:06.288Z,70.36
2018-12-11T04:34:38.576Z,70.60
2018-12-11T04:37:10.683Z,69.00
2018-12-11T04:39:41.732Z,69.60
2018-12-11T04:42:14.923Z,69.12
2018-12-11T04:44:49.923Z,69.53
2018-12-11T04:47:22.633Z,68.84
2018-12-11T04:49:56.170Z,68.62
2018-12-11T04:52:29.576Z,68.86
2018-12-11T04:55:02.488Z,68.23
2018-12-11T04:57:34.812Z,68.12
2018-12-11T05:00:09.079Z,68.18
2018-12-11T05:02:41.335Z,67.53
2018-12-11T05:05:15.611Z,67.53
2018-12-11T05:07:48.129Z,68.00
2018-12-11T05:10:19.868Z,69.11
2018-12-11T05:12:52.703Z,69.94
2018-12-11T05:18:14.999Z,70.58
2018-12-11T05:20:46.884Z,70.06
2018-12-11T05:23:19.412Z,70.45
2018-12-11T05:25:51.808Z,70.51
2018-12-11T05:28:24.183Z,69.53
2018-12-11T05:30:58.026Z,69.77
2018-12-11T05:33:30.480Z,70.35
2018-12-11T05:36:03.614Z,70.39
2018-12-11T05:38:35.669Z,70.89
2018-12-11T05:41:07.425Z,71.60
2018-12-11T05:43:40.005Z,71.12
2018-12-11T05:46:14.475Z,71.18
2018-12-11T05:48:46.114Z,70.46
2018-12-11T05:51:18.376Z,70.94
2018-12-11T05:53:50.908Z,72.28
2018-12-11T05:56:22.886Z,71.54
2018-12-11T05:58:55.837Z,71.73
2018-12-11T06:01:27.443Z,72.29
2018-12-11T06:03:59.338Z,73.06
2018-12-11T06:06:31.705Z,73.23
2018-12-11T06:09:04.965Z,72.90
2018-12-11T06:11:36.943Z,73.65
2018-12-11T06:14:08.943Z,73.56
2018-12-11T06:16:42.126Z,73.28
2018-12-11T06:19:12.275Z,73.34
2018-12-11T06:21:44.728Z,73.19
2018-12-11T06:24:19.017Z,72.96
2018-12-11T06:26:50.788Z,73.35
2018-12-11T06:29:25.378Z,72.96
2018-12-11T06:31:58.139Z,73.16
2018-12-11T06:34:28.401Z,72.63
2018-12-11T06:37:00.690Z,72.82
2018-12-11T06:39:33.178Z,72.39
2018-12-11T06:42:05.167Z,72.44
2018-12-11T06:44:37.206Z,73.24
2018-12-11T06:47:09.534Z,72.66
2018-12-11T06:49:41.459Z,72.83
2018-12-11T06:52:13.626Z,73.15
2018-12-11T06:54:45.639Z,72.51
2018-12-11T06:57:18.067Z,72.06
2018-12-11T06:59:49.994Z,72.45
2018-12-11T07:02:22.805Z,72.36
2018-12-11T07:04:53.338Z,72.00
2018-12-11T07:07:25.608Z,71.88
2018-12-11T07:09:57.683Z,72.22
2018-12-11T07:12:29.790Z,72.04
2018-12-11T07:15:03.668Z,72.61
2018-12-11T07:17:37.264Z,72.07
2018-12-11T07:20:09.376Z,72.71
2018-12-11T07:22:39.600Z,72.80
2018-12-11T07:25:11.667Z,72.81
2018-12-11T07:27:44.508Z,72.22
2018-12-11T07:30:17.421Z,72.52
2018-12-11T07:32:49.460Z,72.95
2018-12-11T07:35:19.817Z,73.43
2018-12-11T07:37:52.250Z,73.42
2018-12-11T07:40:24.317Z,73.47
2018-12-11T07:42:56.704Z,74.30
2018-12-11T07:45:28.428Z,73.85
2018-12-11T07:47:58.868Z,74.17
2018-12-11T07:50:30.887Z,74.46
2018-12-11T07:53:06.464Z,74.77
2018-12-11T07:55:37.899Z,74.24
2018-12-11T07:58:10.429Z,74.09
2018-12-11T08:00:42.725Z,73.78
2018-12-11T08:03:15.524Z,73.85
2018-12-11T08:05:49.669Z,73.39
2018-12-11T08:08:21.599Z,73.06
2018-12-11T08:10:55.884Z,73.66
2018-12-11T08:13:28.259Z,72.79
2018-12-11T08:16:00.906Z,72.83
2018-12-11T08:18:33.110Z,72.86
2018-12-11T08:21:04.747Z,72.83
2018-12-11T08:23:37.649Z,72.80
2018-12-11T08:26:10.179Z,73.10
2018-12-11T08:28:44.566Z,72.94
2018-12-11T08:31:18.367Z,73.54
2018-12-11T08:33:50.363Z,73.10
2018-12-11T08:36:22.356Z,72.88
2018-12-11T08:38:54.295Z,72.44
2018-12-11T08:41:26.664Z,72.23
2018-12-11T08:44:01.004Z,72.79
2018-12-11T08:46:35.466Z,71.94
2018-12-11T08:49:09.252Z,72.46
2018-12-11T08:51:43.507Z,71.99
2018-12-11T08:54:15.207Z,73.15
2018-12-11T08:56:47.523Z,72.98
2018-12-11T08:59:19.654Z,72.40
2018-12-11T09:01:54.443Z,72.69
2018-12-11T09:04:26.224Z,73.23
2018-12-11T09:06:58.349Z,72.58
2018-12-11T09:09:30.503Z,72.78
2018-12-11T09:12:02.860Z,72.71
2018-12-11T09:14:35.029Z,73.02
2018-12-11T09:17:10.233Z,72.72
2018-12-11T09:19:42.133Z,72.95
2018-12-11T09:22:14.184Z,73.28
2018-12-11T09:24:46.444Z,72.34
2018-12-11T09:27:18.584Z,72.69
2018-12-11T09:29:50.163Z,72.86
2018-12-11T09:32:22.607Z,73.16
2018-12-11T09:34:54.363Z,71.74
2018-12-11T09:37:26.372Z,72.40
2018-12-11T09:39:59.430Z,71.25
2018-12-11T09:42:33.043Z,72.22
2018-12-11T09:45:08.265Z,72.06
2018-12-11T09:47:40.270Z,71.30
2018-12-11T09:50:12.355Z,71.13
2018-12-11T09:52:46.576Z,70.59
2018-12-11T09:55:19.117Z,70.00
2018-12-11T09:57:51.175Z,69.41
2018-12-11T10:00:27.197Z,68.69
2018-12-11T10:02:57.614Z,68.89
2018-12-11T10:05:30.737Z,67.92
2018-12-11T10:08:03.900Z,67.98
2018-12-11T10:10:35.560Z,69.00
2018-12-11T10:13:07.474Z,67.48
2018-12-11T10:15:41.145Z,67.94
2018-12-11T10:18:13.303Z,67.97
2018-12-11T10:20:45.560Z,67.98
2018-12-11T10:23:20.313Z,67.68
2018-12-11T10:25:52.065Z,69.00
2018-12-11T10:28:22.618Z,68.36
2018-12-11T10:30:54.996Z,67.78
2018-12-11T10:33:27.475Z,68.29
2018-12-11T10:35:57.752Z,67.77
2018-12-11T10:38:29.913Z,68.21
2018-12-11T10:41:02.455Z,67.87
2018-12-11T10:43:34.521Z,67.59
2018-12-11T10:46:07.223Z,67.80
2018-12-11T10:48:39.215Z,68.28
2018-12-11T10:51:11.404Z,67.78
2018-12-11T10:53:45.924Z,68.05
2018-12-11T10:56:18.511Z,68.10
2018-12-11T10:58:51.311Z,67.66
2018-12-11T11:01:27.691Z,67.81
2018-12-11T11:03:59.683Z,67.72
2018-12-11T11:06:31.681Z,68.04
2018-12-11T11:09:05.645Z,67.94
2018-12-11T11:11:38.045Z,67.69
2018-12-11T11:14:10.521Z,68.38
2018-12-11T11:16:43.951Z,68.74
2018-12-11T11:19:18.305Z,68.91
2018-12-11T11:21:49.879Z,67.94
2018-12-11T11:24:24.249Z,68.05
2018-12-11T11:26:56.584Z,68.00
2018-12-11T11:29:28.913Z,68.05
2018-12-11T11:32:01.625Z,68.76
2018-12-11T11:34:38.549Z,67.85
2018-12-11T11:37:10.576Z,68.55
2018-12-11T11:42:37.125Z,68.07
2018-12-11T11:45:10.492Z,68.02
2018-12-11T11:47:43.556Z,68.08
2018-12-11T11:50:18.324Z,68.74
2018-12-11T11:52:50.310Z,68.42
2018-12-11T11:55:22.324Z,68.53
2018-12-11T11:57:54.901Z,68.90
2018-12-11T12:00:28.019Z,68.57
2018-12-11T12:03:00.336Z,69.37
2018-12-11T12:10:36.193Z,69.45
2018-12-11T12:13:08.723Z,70.69
2018-12-11T12:15:40.836Z,71.23
2018-12-11T12:18:13.567Z,71.07
2018-12-11T12:20:45.276Z,70.89
2018-12-11T12:23:16.839Z,71.02
2018-12-11T12:25:49.259Z,71.56
2018-12-11T12:28:21.421Z,71.54
2018-12-11T12:30:54.921Z,71.89
2018-12-11T12:33:27.261Z,71.96
2018-12-11T12:35:57.269Z,71.37
2018-12-11T12:38:36.880Z,71.43
2018-12-11T12:41:18.768Z,70.54
2018-12-11T12:43:52.250Z,70.55
2018-12-11T12:46:22.385Z,69.66
2018-12-11T12:48:54.512Z,68.54
2018-12-11T12:51:26.809Z,67.35
2018-12-11T12:53:59.647Z,67.40
2018-12-11T12:59:25.252Z,67.68
2018-12-11T13:01:57.522Z,68.43
2018-12-11T13:04:29.850Z,68.72
2018-12-11T13:07:02.264Z,68.13
2018-12-11T13:12:05.353Z,67.86
2018-12-11T13:14:37.563Z,67.59
2018-12-11T13:17:11.796Z,67.59
2018-12-11T13:19:43.848Z,67.34
2018-12-11T13:22:16.100Z,67.36
2018-12-11T13:24:48.401Z,67.67
2018-12-11T13:27:20.629Z,67.70
2018-12-11T13:29:53.235Z,68.04
2018-12-11T13:32:24.987Z,68.29
2018-12-11T13:34:57.509Z,67.98
2018-12-11T13:37:29.967Z,68.75
2018-12-11T13:40:04.550Z,69.16
2018-12-11T13:42:37.075Z,69.16
2018-12-11T13:45:09.885Z,69.42
2018-12-11T13:47:44.295Z,69.76
2018-12-11T13:50:16.927Z,69.55
2018-12-11T13:52:49.013Z,69.92
2018-12-11T13:55:21.677Z,69.65
2018-12-11T13:57:53.711Z,69.58
2018-12-11T14:00:25.975Z,69.92
2018-12-11T14:02:58.211Z,70.31
2018-12-11T14:05:30.453Z,70.40
2018-12-11T14:08:02.574Z,70.81
2018-12-11T14:10:34.830Z,70.82
2018-12-11T14:16:01.401Z,70.18
2018-12-11T14:18:37.385Z,69.51
2018-12-11T14:21:07.717Z,69.54
2018-12-11T14:23:44.640Z,69.60
2018-12-11T14:26:16.300Z,69.50
2018-12-11T14:28:48.696Z,69.61
2018-12-11T14:31:26.719Z,68.64
2018-12-11T14:33:59.033Z,68.74
2018-12-11T14:36:31.136Z,68.14
2018-12-11T14:39:04.738Z,67.66
2018-12-11T14:41:36.605Z,67.84
2018-12-11T14:44:08.978Z,68.21
2018-12-11T14:46:41.318Z,67.87
2018-12-11T14:49:13.232Z,68.55
2018-12-11T14:51:45.461Z,68.37
2018-12-11T14:54:17.633Z,68.01
2018-12-11T14:56:49.905Z,68.94
2018-12-11T14:59:22.333Z,69.08
2018-12-11T15:01:52.632Z,68.91
2018-12-11T15:04:25.138Z,68.13
2018-12-11T15:06:57.541Z,68.06
2018-12-11T15:09:34.813Z,67.62
2018-12-11T15:17:10.988Z,67.78
2018-12-11T15:19:42.956Z,66.83
2018-12-11T15:22:13.087Z,67.20
2018-12-11T15:24:45.117Z,67.35
2018-12-11T15:27:17.396Z,67.49
2018-12-11T15:29:47.335Z,67.40
2018-12-11T15:32:19.786Z,67.30
2018-12-11T15:34:51.894Z,67.79
2018-12-11T15:37:24.179Z,67.49
2018-12-11T15:39:56.481Z,68.37
2018-12-11T15:42:26.621Z,68.42
2018-12-11T15:44:57.538Z,68.21
2018-12-11T15:47:29.513Z,68.63
2018-12-11T15:50:01.658Z,68.73
2018-12-11T15:52:34.092Z,68.76
2018-12-11T15:55:06.475Z,68.65
2018-12-11T15:57:38.525Z,68.72
2018-12-11T16:00:11.844Z,68.56
2018-12-11T16:02:44.310Z,68.63
2018-12-11T16:05:16.332Z,68.39
2018-12-11T16:07:48.369Z,68.76
2018-12-11T16:10:22.920Z,69.02
2018-12-11T16:12:54.688Z,71.39
2018-12-11T16:15:26.627Z,74.99
2018-12-11T16:18:00.981Z,75.51
2018-12-11T16:20:32.661Z,76.17
2018-12-11T16:23:07.225Z,76.12
2018-12-11T16:25:38.912Z,77.36
2018-12-11T16:28:11.017Z,76.46
2018-12-11T16:30:41.534Z,76.94
2018-12-11T16:33:13.864Z,76.17
2018-12-11T16:35:45.905Z,76.64
2018-12-11T16:38:18.203Z,77.09
2018-12-11T16:40:50.412Z,76.82
2018-12-11T16:43:23.076Z,75.46
2018-12-11T16:45:55.036Z,75.17
2018-12-11T16:48:27.275Z,74.54
2018-12-11T16:50:59.582Z,74.72
2018-12-11T16:53:32.049Z,73.66
2018-12-11T16:56:04.274Z,74.16
2018-12-11T16:58:36.108Z,74.23
2018-12-11T17:01:10.535Z,74.15
2018-12-11T17:03:42.361Z,73.79
2018-12-11T17:06:15.109Z,73.40
2018-12-11T17:08:47.302Z,73.87
2018-12-11T17:11:18.847Z,72.96
2018-12-11T17:13:53.006Z,73.69
2018-12-11T17:16:27.797Z,73.37
2018-12-11T17:18:59.940Z,73.12
2018-12-11T17:21:31.776Z,73.68
2018-12-11T17:24:04.181Z,74.15
2018-12-11T17:26:38.749Z,75.40
2018-12-11T17:29:10.723Z,75.78
2018-12-11T17:31:42.471Z,76.15
2018-12-11T17:34:14.423Z,75.66
2018-12-11T17:36:46.501Z,76.05
2018-12-11T17:39:18.696Z,75.70
2018-12-11T17:41:51.137Z,74.94
2018-12-11T17:44:25.396Z,74.71
2018-12-11T17:46:57.031Z,74.29
2018-12-11T17:49:29.743Z,74.15
2018-12-11T17:52:01.313Z,73.95
2018-12-11T17:54:31.719Z,73.66
2018-12-11T17:57:04.203Z,73.49
2018-12-11T17:59:36.193Z,73.14
2018-12-11T18:02:10.324Z,72.39
2018-12-11T18:04:40.607Z,72.51
2018-12-11T18:07:15.023Z,73.24
2018-12-11T18:09:46.819Z,73.08
2018-12-11T18:12:17.319Z,73.35
2018-12-11T18:14:51.624Z,73.70
2018-12-11T18:17:26.185Z,73.41
2018-12-11T18:19:59.805Z,73.02
2018-12-11T18:22:32.436Z,72.44
2018-12-11T18:25:05.403Z,72.90
2018-12-11T18:30:10.111Z,72.87
2018-12-11T18:32:42.374Z,73.82
2018-12-11T18:35:18.322Z,74.21
2018-12-11T18:37:51.926Z,75.39
2018-12-11T18:40:24.428Z,76.14
2018-12-11T18:42:56.676Z,77.27
2018-12-11T18:45:28.778Z,77.66
2018-12-11T18:48:00.661Z,77.79
2018-12-11T18:50:31.013Z,77.57
2018-12-11T18:53:03.003Z,78.04
2018-12-11T18:55:35.359Z,78.73
2018-12-11T18:58:07.546Z,78.04
2018-12-11T19:00:39.845Z,78.41
2018-12-11T19:03:12.264Z,77.46
2018-12-11T19:05:44.297Z,78.39
2018-12-11T19:08:18.403Z,78.42
2018-12-11T19:10:50.984Z,78.04
2018-12-11T19:13:23.701Z,77.47
2018-12-11T19:15:56.092Z,76.90
2018-12-11T19:18:28.197Z,77.26
2018-12-11T19:21:10.858Z,76.79
2018-12-11T19:23:59.878Z,77.34
2018-12-11T19:26:31.784Z,76.62
2018-12-11T19:29:03.727Z,76.01
2018-12-11T19:31:38.094Z,76.16
2018-12-11T19:34:09.823Z,75.73
2018-12-11T19:36:42.622Z,75.92
2018-12-11T19:39:14.939Z,75.27
2018-12-11T19:41:47.531Z,75.69
2018-12-11T19:44:21.558Z,76.03
2018-12-11T19:46:54.088Z,74.58
2018-12-11T19:49:26.430Z,74.89
2018-12-11T19:51:58.831Z,74.89
2018-12-11T19:54:30.581Z,74.88
2018-12-11T19:57:03.994Z,75.03
2018-12-11T19:59:37.217Z,75.70
2018-12-11T20:02:07.332Z,76.67
2018-12-11T20:04:43.150Z,76.66
2018-12-11T20:07:18.274Z,76.72
2018-12-11T20:09:55.860Z,76.55
2018-12-11T20:12:27.866Z,76.45
2018-12-11T20:15:04.668Z,76.90
2018-12-11T20:17:34.826Z,77.89
2018-12-11T20:20:07.612Z,78.18
2018-12-11T20:22:39.881Z,79.65
2018-12-11T20:25:11.867Z,79.45
2018-12-11T20:27:44.751Z,79.64
2018-12-11T20:32:48.796Z,79.79
2018-12-11T20:35:20.796Z,79.95
2018-12-11T20:38:00.297Z,80.05
2018-12-11T20:40:32.743Z,79.17
2018-12-11T20:43:04.699Z,79.92
2018-12-11T20:45:37.091Z,80.23
2018-12-11T20:48:08.961Z,79.76
2018-12-11T20:50:41.573Z,79.30
2018-12-11T20:53:13.449Z,79.52
2018-12-11T20:55:45.887Z,79.62
2018-12-11T20:58:20.355Z,79.32
2018-12-11T21:00:52.158Z,79.21
2018-12-11T21:03:24.403Z,78.99
2018-12-11T21:05:56.801Z,78.94
2018-12-11T21:08:29.810Z,79.11
2018-12-11T21:11:01.957Z,78.92
2018-12-11T21:13:34.588Z,78.58
2018-12-11T21:16:11.007Z,78.84
2018-12-11T21:18:40.753Z,78.59
2018-12-11T21:21:12.772Z,78.41
2018-12-11T21:23:46.449Z,78.57
2018-12-11T21:26:19.691Z,77.97
2018-12-11T21:28:51.369Z,78.60
2018-12-11T21:31:26.250Z,77.73
2018-12-11T21:33:59.173Z,78.58
2018-12-11T21:36:33.914Z,78.33
2018-12-11T21:39:09.740Z,78.59
2018-12-11T21:41:42.049Z,78.50
2018-12-11T21:44:14.354Z,78.84
2018-12-11T21:46:46.553Z,79.47
2018-12-11T21:49:19.220Z,79.44
2018-12-11T21:51:51.660Z,79.97
2018-12-11T21:57:18.154Z,80.40
2018-12-11T21:59:50.124Z,80.24
2018-12-11T22:02:22.922Z,80.65
2018-12-11T22:04:53.585Z,80.98
2018-12-11T22:07:25.810Z,80.79
2018-12-11T22:09:58.203Z,80.91
2018-12-11T22:12:30.788Z,80.76
2018-12-11T22:15:05.169Z,81.27
2018-12-11T22:17:37.874Z,81.43
2018-12-11T22:20:17.090Z,80.87
2018-12-11T22:22:50.458Z,81.49
2018-12-11T22:25:22.731Z,81.54
2018-12-11T22:27:55.095Z,82.47
2018-12-11T22:30:27.164Z,82.33
2018-12-11T22:32:59.662Z,82.87
2018-12-11T22:35:32.247Z,82.67
2018-12-11T22:38:05.506Z,82.88
2018-12-11T22:40:38.346Z,83.39
2018-12-11T22:43:11.075Z,83.15
2018-12-11T22:45:43.136Z,83.07
2018-12-11T22:48:14.974Z,83.16
2018-12-11T22:50:50.051Z,83.61
2018-12-11T22:53:20.335Z,83.04
2018-12-11T22:55:52.525Z,83.10
2018-12-11T22:58:24.835Z,83.59
2018-12-11T23:00:57.608Z,83.11
2018-12-11T23:03:29.473Z,83.40
2018-12-11T23:06:01.696Z,83.60
2018-12-11T23:08:33.876Z,83.58
2018-12-11T23:14:00.164Z,83.63
2018-12-11T23:16:32.315Z,83.46
2018-12-11T23:19:04.680Z,82.96
2018-12-11T23:21:36.780Z,83.13
2018-12-11T23:24:09.213Z,82.83
2018-12-11T23:26:41.408Z,84.13
2018-12-11T23:29:13.405Z,83.44
2018-12-11T23:31:47.840Z,83.42
2018-12-11T23:36:54.673Z,83.92
2018-12-11T23:39:29.222Z,84.30
2018-12-11T23:42:03.077Z,84.14
2018-12-11T23:44:37.911Z,84.21
2018-12-11T23:47:11.553Z,84.01
2018-12-11T23:49:44.705Z,84.30
2018-12-11T23:52:17.284Z,83.91
2018-12-11T23:54:50.667Z,84.26
2018-12-11T23:57:20.876Z,84.08
2018-12-11T23:59:53.709Z,84.26
